sensor_id;sensor_type;location;lat;lon;timestamp;temperature;humidity
12130;DHT22;6128;59.340;18.040;2024-03-08T00:00:34;1.90;99.90
12130;DHT22;6128;59.340;18.040;2024-03-08T00:03:01;1.90;99.90
12130;DHT22;6128;59.340;18.040;2024-03-08T00:05:30;1.90;99.90
12130;DHT22;6128;59.340;18.040;2024-03-08T00:07:57;1.90;99.90
12130;DHT22;6128;59.340;18.040;2024-03-08T00:10:25;1.80;99.90
12130;DHT22;6128;59.340;18.040;2024-03-08T00:12:54;1.80;99.90
12130;DHT22;6128;59.340;18.040;2024-03-08T00:15:21;1.80;99.90
12130;DHT22;6128;59.340;18.040;2024-03-08T00:17:48;1.80;99.90
12130;DHT22;6128;59.340;18.040;2024-03-08T00:20:16;1.80;99.90
12130;DHT22;6128;59.340;18.040;2024-03-08T00:22:46;1.80;99.90
12130;DHT22;6128;59.340;18.040;2024-03-08T00:25:13;1.80;99.90
12130;DHT22;6128;59.340;18.040;2024-03-08T00:27:40;1.70;99.90
12130;DHT22;6128;59.340;18.040;2024-03-08T00:30:08;1.70;99.90
12130;DHT22;6128;59.340;18.040;2024-03-08T00:32:36;1.70;99.90
12130;DHT22;6128;59.340;18.040;2024-03-08T00:35:04;1.70;99.90
12130;DHT22;6128;59.340;18.040;2024-03-08T00:37:33;1.80;99.90
12130;DHT22;6128;59.340;18.040;2024-03-08T00:40:02;1.70;99.90
12130;DHT22;6128;59.340;18.040;2024-03-08T00:42:29;1.70;99.90
12130;DHT22;6128;59.340;18.040;2024-03-08T00:44:56;1.70;99.90
12130;DHT22;6128;59.340;18.040;2024-03-08T00:47:23;1.70;99.90
12130;DHT22;6128;59.340;18.040;2024-03-08T00:49:50;1.60;99.90
12130;DHT22;6128;59.340;18.040;2024-03-08T00:52:18;1.60;99.90
12130;DHT22;6128;59.340;18.040;2024-03-08T00:54:45;1.60;99.90
12130;DHT22;6128;59.340;18.040;2024-03-08T00:57:14;1.60;99.90
12130;DHT22;6128;59.340;18.040;2024-03-08T00:59:41;1.60;99.90
12130;DHT22;6128;59.340;18.040;2024-03-08T01:02:08;1.60;99.90
12130;DHT22;6128;59.340;18.040;2024-03-08T01:04:36;1.60;99.90
12130;DHT22;6128;59.340;18.040;2024-03-08T01:07:03;1.60;99.90
12130;DHT22;6128;59.340;18.040;2024-03-08T01:09:30;1.60;99.90
12130;DHT22;6128;59.340;18.040;2024-03-08T01:11:57;1.50;99.90
12130;DHT22;6128;59.340;18.040;2024-03-08T01:14:25;1.60;99.90
12130;DHT22;6128;59.340;18.040;2024-03-08T01:16:54;1.50;99.90
12130;DHT22;6128;59.340;18.040;2024-03-08T01:19:22;1.50;99.90
12130;DHT22;6128;59.340;18.040;2024-03-08T01:21:49;1.50;99.90
12130;DHT22;6128;59.340;18.040;2024-03-08T01:24:17;1.50;99.90
12130;DHT22;6128;59.340;18.040;2024-03-08T01:26:44;1.50;99.90
12130;DHT22;6128;59.340;18.040;2024-03-08T01:29:11;1.50;99.90
12130;DHT22;6128;59.340;18.040;2024-03-08T01:31:39;1.40;99.90
12130;DHT22;6128;59.340;18.040;2024-03-08T01:34:06;1.40;99.90
12130;DHT22;6128;59.340;18.040;2024-03-08T01:36:33;1.40;99.90
12130;DHT22;6128;59.340;18.040;2024-03-08T01:39:03;1.40;99.90
12130;DHT22;6128;59.340;18.040;2024-03-08T01:41:33;1.40;99.90
12130;DHT22;6128;59.340;18.040;2024-03-08T01:44:01;1.40;99.90
12130;DHT22;6128;59.340;18.040;2024-03-08T01:46:29;1.40;99.90
12130;DHT22;6128;59.340;18.040;2024-03-08T01:48:58;1.40;99.90
12130;DHT22;6128;59.340;18.040;2024-03-08T01:51:26;1.40;99.90
12130;DHT22;6128;59.340;18.040;2024-03-08T01:53:55;1.30;99.90
12130;DHT22;6128;59.340;18.040;2024-03-08T01:56:24;1.30;99.90
12130;DHT22;6128;59.340;18.040;2024-03-08T01:58:52;1.20;99.90
12130;DHT22;6128;59.340;18.040;2024-03-08T02:01:19;1.20;99.90
12130;DHT22;6128;59.340;18.040;2024-03-08T02:03:46;1.20;99.90
12130;DHT22;6128;59.340;18.040;2024-03-08T02:06:14;1.20;99.90
12130;DHT22;6128;59.340;18.040;2024-03-08T02:08:43;1.20;99.90
12130;DHT22;6128;59.340;18.040;2024-03-08T02:11:10;1.20;99.90
12130;DHT22;6128;59.340;18.040;2024-03-08T02:13:37;1.10;99.90
12130;DHT22;6128;59.340;18.040;2024-03-08T02:16:05;1.10;99.90
12130;DHT22;6128;59.340;18.040;2024-03-08T02:18:34;1.10;99.90
12130;DHT22;6128;59.340;18.040;2024-03-08T02:21:04;1.10;99.90
12130;DHT22;6128;59.340;18.040;2024-03-08T02:23:32;1.10;99.90
12130;DHT22;6128;59.340;18.040;2024-03-08T02:26:00;1.10;99.90
12130;DHT22;6128;59.340;18.040;2024-03-08T02:28:27;1.10;99.90
12130;DHT22;6128;59.340;18.040;2024-03-08T02:30:54;1.10;99.90
12130;DHT22;6128;59.340;18.040;2024-03-08T02:33:23;1.10;99.90
12130;DHT22;6128;59.340;18.040;2024-03-08T02:35:50;1.10;99.90
12130;DHT22;6128;59.340;18.040;2024-03-08T02:38:20;1.10;99.90
12130;DHT22;6128;59.340;18.040;2024-03-08T02:40:48;1.00;99.90
12130;DHT22;6128;59.340;18.040;2024-03-08T02:43:17;1.00;99.90
12130;DHT22;6128;59.340;18.040;2024-03-08T02:45:44;1.00;99.90
12130;DHT22;6128;59.340;18.040;2024-03-08T02:48:12;0.90;99.90
12130;DHT22;6128;59.340;18.040;2024-03-08T02:50:39;0.90;99.90
12130;DHT22;6128;59.340;18.040;2024-03-08T02:53:08;0.90;99.90
12130;DHT22;6128;59.340;18.040;2024-03-08T02:55:38;0.90;99.90
12130;DHT22;6128;59.340;18.040;2024-03-08T02:58:06;0.90;99.90
12130;DHT22;6128;59.340;18.040;2024-03-08T03:00:36;0.80;99.90
12130;DHT22;6128;59.340;18.040;2024-03-08T03:03:04;0.80;99.90
12130;DHT22;6128;59.340;18.040;2024-03-08T03:05:32;0.80;99.90
12130;DHT22;6128;59.340;18.040;2024-03-08T03:07:59;0.70;99.90
12130;DHT22;6128;59.340;18.040;2024-03-08T03:10:26;0.70;99.90
12130;DHT22;6128;59.340;18.040;2024-03-08T03:12:55;0.70;99.90
12130;DHT22;6128;59.340;18.040;2024-03-08T03:15:22;0.70;99.90
12130;DHT22;6128;59.340;18.040;2024-03-08T03:17:50;0.60;99.90
12130;DHT22;6128;59.340;18.040;2024-03-08T03:20:17;0.70;99.90
12130;DHT22;6128;59.340;18.040;2024-03-08T03:22:52;0.60;99.90
12130;DHT22;6128;59.340;18.040;2024-03-08T03:25:20;0.60;99.90
12130;DHT22;6128;59.340;18.040;2024-03-08T03:27:51;0.60;99.90
12130;DHT22;6128;59.340;18.040;2024-03-08T03:30:23;0.60;99.90
12130;DHT22;6128;59.340;18.040;2024-03-08T03:32:53;0.50;99.90
12130;DHT22;6128;59.340;18.040;2024-03-08T03:35:20;0.50;99.90
12130;DHT22;6128;59.340;18.040;2024-03-08T03:37:48;0.50;99.90
12130;DHT22;6128;59.340;18.040;2024-03-08T03:40:27;0.50;99.90
12130;DHT22;6128;59.340;18.040;2024-03-08T03:42:54;0.50;99.90
12130;DHT22;6128;59.340;18.040;2024-03-08T03:45:23;0.50;99.90
12130;DHT22;6128;59.340;18.040;2024-03-08T03:47:50;0.50;99.90
12130;DHT22;6128;59.340;18.040;2024-03-08T03:50:18;0.40;99.90
12130;DHT22;6128;59.340;18.040;2024-03-08T03:52:45;0.40;99.90
12130;DHT22;6128;59.340;18.040;2024-03-08T03:55:13;0.40;99.90
12130;DHT22;6128;59.340;18.040;2024-03-08T03:57:40;0.40;99.90
12130;DHT22;6128;59.340;18.040;2024-03-08T04:00:08;0.40;99.90
12130;DHT22;6128;59.340;18.040;2024-03-08T04:02:38;0.40;99.90
12130;DHT22;6128;59.340;18.040;2024-03-08T04:05:06;0.40;99.90
12130;DHT22;6128;59.340;18.040;2024-03-08T04:07:34;0.40;99.90
12130;DHT22;6128;59.340;18.040;2024-03-08T04:10:02;0.30;99.90
12130;DHT22;6128;59.340;18.040;2024-03-08T04:12:31;0.30;99.90
12130;DHT22;6128;59.340;18.040;2024-03-08T04:14:58;0.30;99.90
12130;DHT22;6128;59.340;18.040;2024-03-08T04:17:26;0.30;99.90
12130;DHT22;6128;59.340;18.040;2024-03-08T04:19:54;0.30;99.90
12130;DHT22;6128;59.340;18.040;2024-03-08T04:22:22;0.30;99.90
12130;DHT22;6128;59.340;18.040;2024-03-08T04:24:49;0.30;99.90
12130;DHT22;6128;59.340;18.040;2024-03-08T04:27:17;0.30;99.90
12130;DHT22;6128;59.340;18.040;2024-03-08T04:29:44;0.20;99.90
12130;DHT22;6128;59.340;18.040;2024-03-08T04:32:11;0.20;99.90
12130;DHT22;6128;59.340;18.040;2024-03-08T04:34:39;0.20;99.90
12130;DHT22;6128;59.340;18.040;2024-03-08T04:37:08;0.20;99.90
12130;DHT22;6128;59.340;18.040;2024-03-08T04:39:39;0.20;99.90
12130;DHT22;6128;59.340;18.040;2024-03-08T04:42:06;0.20;99.90
12130;DHT22;6128;59.340;18.040;2024-03-08T04:44:36;0.20;99.90
12130;DHT22;6128;59.340;18.040;2024-03-08T04:47:04;0.20;99.90
12130;DHT22;6128;59.340;18.040;2024-03-08T04:49:32;0.20;99.90
12130;DHT22;6128;59.340;18.040;2024-03-08T04:52:01;0.20;99.90
12130;DHT22;6128;59.340;18.040;2024-03-08T04:54:30;0.20;99.90
12130;DHT22;6128;59.340;18.040;2024-03-08T04:56:58;0.10;99.90
12130;DHT22;6128;59.340;18.040;2024-03-08T04:59:25;0.10;99.90
12130;DHT22;6128;59.340;18.040;2024-03-08T05:01:53;0.10;99.90
12130;DHT22;6128;59.340;18.040;2024-03-08T05:04:20;0.10;99.90
12130;DHT22;6128;59.340;18.040;2024-03-08T05:06:48;0.10;99.90
12130;DHT22;6128;59.340;18.040;2024-03-08T05:09:15;0.10;99.90
12130;DHT22;6128;59.340;18.040;2024-03-08T05:11:46;0.10;99.90
12130;DHT22;6128;59.340;18.040;2024-03-08T05:14:14;0.10;99.90
12130;DHT22;6128;59.340;18.040;2024-03-08T05:16:42;0.00;99.90
12130;DHT22;6128;59.340;18.040;2024-03-08T05:19:09;0.00;99.90
12130;DHT22;6128;59.340;18.040;2024-03-08T05:21:36;0.00;99.90
12130;DHT22;6128;59.340;18.040;2024-03-08T05:24:05;0.00;99.90
12130;DHT22;6128;59.340;18.040;2024-03-08T05:26:32;0.00;99.90
12130;DHT22;6128;59.340;18.040;2024-03-08T05:29:00;0.00;99.90
12130;DHT22;6128;59.340;18.040;2024-03-08T05:31:30;0.00;99.90
12130;DHT22;6128;59.340;18.040;2024-03-08T05:33:57;-0.10;99.90
12130;DHT22;6128;59.340;18.040;2024-03-08T05:36:24;-0.10;99.90
12130;DHT22;6128;59.340;18.040;2024-03-08T05:38:51;-0.10;99.90
12130;DHT22;6128;59.340;18.040;2024-03-08T05:41:20;-0.10;99.90
12130;DHT22;6128;59.340;18.040;2024-03-08T05:43:47;-0.10;99.90
12130;DHT22;6128;59.340;18.040;2024-03-08T05:46:17;-0.10;99.90
12130;DHT22;6128;59.340;18.040;2024-03-08T05:48:45;-0.10;99.90
12130;DHT22;6128;59.340;18.040;2024-03-08T05:51:12;0.00;99.90
12130;DHT22;6128;59.340;18.040;2024-03-08T05:53:39;0.00;99.90
12130;DHT22;6128;59.340;18.040;2024-03-08T05:56:07;0.00;99.90
12130;DHT22;6128;59.340;18.040;2024-03-08T05:58:35;0.00;99.90
12130;DHT22;6128;59.340;18.040;2024-03-08T06:01:02;0.00;99.90
12130;DHT22;6128;59.340;18.040;2024-03-08T06:03:34;0.00;99.90
12130;DHT22;6128;59.340;18.040;2024-03-08T06:06:01;0.10;99.90
12130;DHT22;6128;59.340;18.040;2024-03-08T06:08:29;0.10;99.90
12130;DHT22;6128;59.340;18.040;2024-03-08T06:10:56;0.10;99.90
12130;DHT22;6128;59.340;18.040;2024-03-08T06:13:24;0.10;99.90
12130;DHT22;6128;59.340;18.040;2024-03-08T06:15:52;0.10;99.90
12130;DHT22;6128;59.340;18.040;2024-03-08T06:18:19;0.10;99.90
12130;DHT22;6128;59.340;18.040;2024-03-08T06:20:47;0.10;99.90
12130;DHT22;6128;59.340;18.040;2024-03-08T06:23:14;0.20;99.90
12130;DHT22;6128;59.340;18.040;2024-03-08T06:25:43;0.20;99.90
12130;DHT22;6128;59.340;18.040;2024-03-08T06:28:10;0.20;99.90
12130;DHT22;6128;59.340;18.040;2024-03-08T06:30:38;0.20;99.90
12130;DHT22;6128;59.340;18.040;2024-03-08T06:33:05;0.30;99.90
12130;DHT22;6128;59.340;18.040;2024-03-08T06:35:32;0.20;99.90
12130;DHT22;6128;59.340;18.040;2024-03-08T06:38:02;0.30;99.90
12130;DHT22;6128;59.340;18.040;2024-03-08T06:40:29;0.30;99.90
12130;DHT22;6128;59.340;18.040;2024-03-08T06:42:56;0.30;99.90
12130;DHT22;6128;59.340;18.040;2024-03-08T06:45:23;0.30;99.90
12130;DHT22;6128;59.340;18.040;2024-03-08T06:47:51;0.30;99.90
12130;DHT22;6128;59.340;18.040;2024-03-08T06:50:20;0.40;99.90
12130;DHT22;6128;59.340;18.040;2024-03-08T06:52:47;0.50;99.90
12130;DHT22;6128;59.340;18.040;2024-03-08T06:55:20;0.50;99.90
12130;DHT22;6128;59.340;18.040;2024-03-08T06:57:47;0.50;99.90
12130;DHT22;6128;59.340;18.040;2024-03-08T07:00:15;0.60;99.90
12130;DHT22;6128;59.340;18.040;2024-03-08T07:02:46;0.60;99.90
12130;DHT22;6128;59.340;18.040;2024-03-08T07:05:14;0.70;99.90
12130;DHT22;6128;59.340;18.040;2024-03-08T07:07:42;0.70;99.90
12130;DHT22;6128;59.340;18.040;2024-03-08T07:10:09;0.80;99.90
12130;DHT22;6128;59.340;18.040;2024-03-08T07:12:41;0.80;99.90
12130;DHT22;6128;59.340;18.040;2024-03-08T07:15:09;0.90;99.90
12130;DHT22;6128;59.340;18.040;2024-03-08T07:17:39;1.00;99.90
12130;DHT22;6128;59.340;18.040;2024-03-08T07:20:07;1.10;99.90
12130;DHT22;6128;59.340;18.040;2024-03-08T07:22:37;1.30;99.90
12130;DHT22;6128;59.340;18.040;2024-03-08T07:25:05;1.90;99.90
12130;DHT22;6128;59.340;18.040;2024-03-08T07:27:47;2.60;99.90
12130;DHT22;6128;59.340;18.040;2024-03-08T07:30:14;3.30;99.90
12130;DHT22;6128;59.340;18.040;2024-03-08T07:33:04;3.70;99.90
12130;DHT22;6128;59.340;18.040;2024-03-08T07:35:32;4.40;99.90
12130;DHT22;6128;59.340;18.040;2024-03-08T07:38:03;5.10;99.90
12130;DHT22;6128;59.340;18.040;2024-03-08T07:40:31;5.00;99.90
12130;DHT22;6128;59.340;18.040;2024-03-08T07:42:59;5.20;99.90
12130;DHT22;6128;59.340;18.040;2024-03-08T07:45:26;5.20;99.90
12130;DHT22;6128;59.340;18.040;2024-03-08T07:47:53;5.30;99.90
12130;DHT22;6128;59.340;18.040;2024-03-08T07:50:21;6.00;99.90
12130;DHT22;6128;59.340;18.040;2024-03-08T07:52:49;6.50;99.90
12130;DHT22;6128;59.340;18.040;2024-03-08T07:55:16;6.50;99.90
12130;DHT22;6128;59.340;18.040;2024-03-08T07:57:45;6.50;99.90
12130;DHT22;6128;59.340;18.040;2024-03-08T08:00:15;6.80;99.90
12130;DHT22;6128;59.340;18.040;2024-03-08T08:02:44;6.70;99.90
12130;DHT22;6128;59.340;18.040;2024-03-08T08:05:12;6.80;99.90
12130;DHT22;6128;59.340;18.040;2024-03-08T08:07:40;6.80;99.90
12130;DHT22;6128;59.340;18.040;2024-03-08T08:10:09;7.20;99.90
12130;DHT22;6128;59.340;18.040;2024-03-08T08:12:44;7.20;99.90
12130;DHT22;6128;59.340;18.040;2024-03-08T08:15:11;7.40;99.90
12130;DHT22;6128;59.340;18.040;2024-03-08T08:17:42;7.70;99.90
12130;DHT22;6128;59.340;18.040;2024-03-08T08:20:10;8.00;99.90
12130;DHT22;6128;59.340;18.040;2024-03-08T08:22:38;8.50;99.90
12130;DHT22;6128;59.340;18.040;2024-03-08T08:25:06;8.10;99.90
12130;DHT22;6128;59.340;18.040;2024-03-08T08:27:33;8.20;99.90
12130;DHT22;6128;59.340;18.040;2024-03-08T08:30:02;8.80;99.90
12130;DHT22;6128;59.340;18.040;2024-03-08T08:32:34;9.30;99.90
12130;DHT22;6128;59.340;18.040;2024-03-08T08:35:03;9.70;99.90
12130;DHT22;6128;59.340;18.040;2024-03-08T08:37:31;10.00;99.90
12130;DHT22;6128;59.340;18.040;2024-03-08T08:39:59;10.20;99.90
12130;DHT22;6128;59.340;18.040;2024-03-08T08:42:31;10.60;99.90
12130;DHT22;6128;59.340;18.040;2024-03-08T08:44:58;10.80;99.90
12130;DHT22;6128;59.340;18.040;2024-03-08T08:47:30;10.50;99.90
12130;DHT22;6128;59.340;18.040;2024-03-08T08:49:57;10.50;99.90
12130;DHT22;6128;59.340;18.040;2024-03-08T08:52:25;10.50;99.90
12130;DHT22;6128;59.340;18.040;2024-03-08T08:54:52;10.20;99.90
12130;DHT22;6128;59.340;18.040;2024-03-08T08:57:19;10.10;99.90
12130;DHT22;6128;59.340;18.040;2024-03-08T08:59:46;10.00;99.90
12130;DHT22;6128;59.340;18.040;2024-03-08T09:02:14;9.60;99.90
12130;DHT22;6128;59.340;18.040;2024-03-08T09:04:42;9.30;99.90
12130;DHT22;6128;59.340;18.040;2024-03-08T09:07:10;9.50;99.90
12130;DHT22;6128;59.340;18.040;2024-03-08T09:09:42;9.60;99.90
12130;DHT22;6128;59.340;18.040;2024-03-08T09:12:09;9.80;99.90
12130;DHT22;6128;59.340;18.040;2024-03-08T09:14:39;9.70;99.90
12130;DHT22;6128;59.340;18.040;2024-03-08T09:17:06;9.50;99.90
12130;DHT22;6128;59.340;18.040;2024-03-08T09:19:34;9.40;99.90
12130;DHT22;6128;59.340;18.040;2024-03-08T09:22:02;9.30;99.90
12130;DHT22;6128;59.340;18.040;2024-03-08T09:24:32;9.00;99.90
12130;DHT22;6128;59.340;18.040;2024-03-08T09:27:01;8.30;99.90
12130;DHT22;6128;59.340;18.040;2024-03-08T09:29:28;7.70;99.90
12130;DHT22;6128;59.340;18.040;2024-03-08T09:31:56;7.00;99.90
12130;DHT22;6128;59.340;18.040;2024-03-08T09:34:23;6.50;99.90
12130;DHT22;6128;59.340;18.040;2024-03-08T09:36:50;5.60;99.90
12130;DHT22;6128;59.340;18.040;2024-03-08T09:39:17;5.50;99.90
12130;DHT22;6128;59.340;18.040;2024-03-08T09:41:46;5.30;99.90
12130;DHT22;6128;59.340;18.040;2024-03-08T09:44:16;5.00;99.90
12130;DHT22;6128;59.340;18.040;2024-03-08T09:46:45;4.70;99.90
12130;DHT22;6128;59.340;18.040;2024-03-08T09:49:13;4.80;99.90
12130;DHT22;6128;59.340;18.040;2024-03-08T09:51:40;4.70;99.90
12130;DHT22;6128;59.340;18.040;2024-03-08T09:54:07;4.60;99.90
12130;DHT22;6128;59.340;18.040;2024-03-08T09:56:35;4.60;99.90
12130;DHT22;6128;59.340;18.040;2024-03-08T09:59:04;4.70;99.90
12130;DHT22;6128;59.340;18.040;2024-03-08T10:01:46;4.70;99.90
12130;DHT22;6128;59.340;18.040;2024-03-08T10:04:13;4.70;99.90
12130;DHT22;6128;59.340;18.040;2024-03-08T10:06:40;4.70;99.90
12130;DHT22;6128;59.340;18.040;2024-03-08T10:09:07;4.70;99.90
12130;DHT22;6128;59.340;18.040;2024-03-08T10:11:36;4.70;99.90
12130;DHT22;6128;59.340;18.040;2024-03-08T10:14:05;4.60;99.90
12130;DHT22;6128;59.340;18.040;2024-03-08T10:16:33;4.50;99.90
12130;DHT22;6128;59.340;18.040;2024-03-08T10:19:02;4.60;99.90
12130;DHT22;6128;59.340;18.040;2024-03-08T10:21:31;4.70;99.90
12130;DHT22;6128;59.340;18.040;2024-03-08T10:23:59;4.90;99.90
12130;DHT22;6128;59.340;18.040;2024-03-08T10:26:26;5.00;99.90
12130;DHT22;6128;59.340;18.040;2024-03-08T10:28:53;5.10;99.90
12130;DHT22;6128;59.340;18.040;2024-03-08T10:31:21;5.20;99.90
12130;DHT22;6128;59.340;18.040;2024-03-08T10:33:48;5.20;99.90
12130;DHT22;6128;59.340;18.040;2024-03-08T10:36:17;5.20;99.90
12130;DHT22;6128;59.340;18.040;2024-03-08T10:38:44;5.10;99.90
12130;DHT22;6128;59.340;18.040;2024-03-08T10:41:13;5.00;99.90
12130;DHT22;6128;59.340;18.040;2024-03-08T10:43:54;5.00;99.90
12130;DHT22;6128;59.340;18.040;2024-03-08T10:46:30;5.10;99.90
12130;DHT22;6128;59.340;18.040;2024-03-08T10:49:04;5.30;99.90
12130;DHT22;6128;59.340;18.040;2024-03-08T10:51:35;5.20;99.90
12130;DHT22;6128;59.340;18.040;2024-03-08T10:54:05;5.30;99.90
12130;DHT22;6128;59.340;18.040;2024-03-08T10:56:32;5.20;99.90
12130;DHT22;6128;59.340;18.040;2024-03-08T10:59:00;5.30;99.90
12130;DHT22;6128;59.340;18.040;2024-03-08T11:01:29;5.20;99.90
12130;DHT22;6128;59.340;18.040;2024-03-08T11:03:57;5.10;99.90
12130;DHT22;6128;59.340;18.040;2024-03-08T11:06:30;5.20;99.90
12130;DHT22;6128;59.340;18.040;2024-03-08T11:12:21;5.20;99.90
12130;DHT22;6128;59.340;18.040;2024-03-08T11:14:52;5.10;99.90
12130;DHT22;6128;59.340;18.040;2024-03-08T11:17:40;5.20;99.90
12130;DHT22;6128;59.340;18.040;2024-03-08T11:20:11;5.40;99.90
12130;DHT22;6128;59.340;18.040;2024-03-08T11:22:43;5.50;99.90
12130;DHT22;6128;59.340;18.040;2024-03-08T11:25:32;5.60;99.90
12130;DHT22;6128;59.340;18.040;2024-03-08T11:28:13;5.70;99.90
12130;DHT22;6128;59.340;18.040;2024-03-08T11:30:44;5.70;99.90
12130;DHT22;6128;59.340;18.040;2024-03-08T11:33:13;5.60;99.90
12130;DHT22;6128;59.340;18.040;2024-03-08T11:35:41;5.60;99.90
12130;DHT22;6128;59.340;18.040;2024-03-08T11:38:12;5.60;99.90
12130;DHT22;6128;59.340;18.040;2024-03-08T11:40:46;5.70;99.90
12130;DHT22;6128;59.340;18.040;2024-03-08T11:43:16;5.80;99.90
12130;DHT22;6128;59.340;18.040;2024-03-08T11:45:43;6.00;99.90
12130;DHT22;6128;59.340;18.040;2024-03-08T11:48:10;6.10;99.90
12130;DHT22;6128;59.340;18.040;2024-03-08T11:50:38;6.20;99.90
12130;DHT22;6128;59.340;18.040;2024-03-08T11:53:06;6.00;99.90
12130;DHT22;6128;59.340;18.040;2024-03-08T11:55:34;5.90;99.90
12130;DHT22;6128;59.340;18.040;2024-03-08T11:58:03;5.90;99.90
12130;DHT22;6128;59.340;18.040;2024-03-08T12:00:36;5.90;99.90
12130;DHT22;6128;59.340;18.040;2024-03-08T12:03:05;6.00;99.90
12130;DHT22;6128;59.340;18.040;2024-03-08T12:05:36;6.00;99.90
12130;DHT22;6128;59.340;18.040;2024-03-08T12:08:05;6.00;99.90
12130;DHT22;6128;59.340;18.040;2024-03-08T12:10:32;6.10;99.90
12130;DHT22;6128;59.340;18.040;2024-03-08T12:13:00;6.20;99.90
12130;DHT22;6128;59.340;18.040;2024-03-08T12:15:31;6.30;99.90
12130;DHT22;6128;59.340;18.040;2024-03-08T12:18:01;6.40;99.90
12130;DHT22;6128;59.340;18.040;2024-03-08T12:20:33;6.30;99.90
12130;DHT22;6128;59.340;18.040;2024-03-08T12:23:14;6.00;99.90
12130;DHT22;6128;59.340;18.040;2024-03-08T12:25:45;5.80;99.90
12130;DHT22;6128;59.340;18.040;2024-03-08T12:28:13;5.80;99.90
12130;DHT22;6128;59.340;18.040;2024-03-08T12:30:50;5.70;99.90
12130;DHT22;6128;59.340;18.040;2024-03-08T12:33:18;5.60;99.90
12130;DHT22;6128;59.340;18.040;2024-03-08T12:35:54;5.90;99.90
12130;DHT22;6128;59.340;18.040;2024-03-08T12:38:21;6.10;99.90
12130;DHT22;6128;59.340;18.040;2024-03-08T12:40:55;6.00;99.90
12130;DHT22;6128;59.340;18.040;2024-03-08T12:43:23;6.10;99.90
12130;DHT22;6128;59.340;18.040;2024-03-08T12:45:52;6.10;99.90
12130;DHT22;6128;59.340;18.040;2024-03-08T12:48:20;6.20;99.90
12130;DHT22;6128;59.340;18.040;2024-03-08T12:50:48;6.10;99.90
12130;DHT22;6128;59.340;18.040;2024-03-08T12:53:17;5.90;99.90
12130;DHT22;6128;59.340;18.040;2024-03-08T12:55:44;5.70;99.90
12130;DHT22;6128;59.340;18.040;2024-03-08T12:58:11;5.60;99.90
12130;DHT22;6128;59.340;18.040;2024-03-08T13:00:38;5.50;99.90
12130;DHT22;6128;59.340;18.040;2024-03-08T13:03:10;5.40;99.90
12130;DHT22;6128;59.340;18.040;2024-03-08T13:05:37;5.50;99.90
12130;DHT22;6128;59.340;18.040;2024-03-08T13:08:06;5.50;99.90
12130;DHT22;6128;59.340;18.040;2024-03-08T13:10:38;5.50;99.90
12130;DHT22;6128;59.340;18.040;2024-03-08T13:13:05;5.50;99.90
12130;DHT22;6128;59.340;18.040;2024-03-08T13:15:32;5.60;99.90
12130;DHT22;6128;59.340;18.040;2024-03-08T13:18:00;5.50;99.90
12130;DHT22;6128;59.340;18.040;2024-03-08T13:20:30;5.40;99.90
12130;DHT22;6128;59.340;18.040;2024-03-08T13:22:57;5.40;99.90
12130;DHT22;6128;59.340;18.040;2024-03-08T13:25:27;5.50;99.90
12130;DHT22;6128;59.340;18.040;2024-03-08T13:27:54;5.60;99.90
12130;DHT22;6128;59.340;18.040;2024-03-08T13:30:24;5.50;99.90
12130;DHT22;6128;59.340;18.040;2024-03-08T13:32:52;5.60;99.90
12130;DHT22;6128;59.340;18.040;2024-03-08T13:35:20;5.80;99.90
12130;DHT22;6128;59.340;18.040;2024-03-08T13:37:51;6.00;99.90
12130;DHT22;6128;59.340;18.040;2024-03-08T13:40:19;6.10;99.90
12130;DHT22;6128;59.340;18.040;2024-03-08T13:42:46;6.10;99.90
12130;DHT22;6128;59.340;18.040;2024-03-08T13:45:15;5.70;99.90
12130;DHT22;6128;59.340;18.040;2024-03-08T13:47:46;5.60;99.90
12130;DHT22;6128;59.340;18.040;2024-03-08T13:50:14;5.40;99.90
12130;DHT22;6128;59.340;18.040;2024-03-08T13:52:46;5.30;99.90
12130;DHT22;6128;59.340;18.040;2024-03-08T13:55:18;5.30;99.90
12130;DHT22;6128;59.340;18.040;2024-03-08T13:57:45;5.40;99.90
12130;DHT22;6128;59.340;18.040;2024-03-08T14:00:13;5.30;99.90
12130;DHT22;6128;59.340;18.040;2024-03-08T14:02:41;5.20;99.90
12130;DHT22;6128;59.340;18.040;2024-03-08T14:05:09;5.10;99.90
12130;DHT22;6128;59.340;18.040;2024-03-08T14:07:37;5.20;99.90
12130;DHT22;6128;59.340;18.040;2024-03-08T14:10:06;5.20;99.90
12130;DHT22;6128;59.340;18.040;2024-03-08T14:12:36;5.20;99.90
12130;DHT22;6128;59.340;18.040;2024-03-08T14:15:05;5.10;99.90
12130;DHT22;6128;59.340;18.040;2024-03-08T14:17:33;5.10;99.90
12130;DHT22;6128;59.340;18.040;2024-03-08T14:20:00;5.10;99.90
12130;DHT22;6128;59.340;18.040;2024-03-08T14:22:35;5.10;99.90
12130;DHT22;6128;59.340;18.040;2024-03-08T14:25:06;5.00;99.90
12130;DHT22;6128;59.340;18.040;2024-03-08T14:27:43;4.90;99.90
12130;DHT22;6128;59.340;18.040;2024-03-08T14:30:11;5.00;99.90
12130;DHT22;6128;59.340;18.040;2024-03-08T14:32:38;5.10;99.90
12130;DHT22;6128;59.340;18.040;2024-03-08T14:35:06;5.10;99.90
12130;DHT22;6128;59.340;18.040;2024-03-08T14:37:33;5.10;99.90
12130;DHT22;6128;59.340;18.040;2024-03-08T14:40:00;5.20;99.90
12130;DHT22;6128;59.340;18.040;2024-03-08T14:42:30;5.10;99.90
12130;DHT22;6128;59.340;18.040;2024-03-08T14:44:59;4.90;99.90
12130;DHT22;6128;59.340;18.040;2024-03-08T14:47:26;4.80;99.90
12130;DHT22;6128;59.340;18.040;2024-03-08T14:49:54;4.70;99.90
12130;DHT22;6128;59.340;18.040;2024-03-08T14:52:25;4.70;99.90
12130;DHT22;6128;59.340;18.040;2024-03-08T14:54:55;4.50;99.90
12130;DHT22;6128;59.340;18.040;2024-03-08T14:57:23;4.30;99.90
12130;DHT22;6128;59.340;18.040;2024-03-08T14:59:51;4.20;99.90
12130;DHT22;6128;59.340;18.040;2024-03-08T15:02:19;4.20;99.90
12130;DHT22;6128;59.340;18.040;2024-03-08T15:04:47;4.00;99.90
12130;DHT22;6128;59.340;18.040;2024-03-08T15:07:23;3.80;99.90
12130;DHT22;6128;59.340;18.040;2024-03-08T15:09:51;3.70;99.90
12130;DHT22;6128;59.340;18.040;2024-03-08T15:12:18;3.50;99.90
12130;DHT22;6128;59.340;18.040;2024-03-08T15:14:46;3.40;99.90
12130;DHT22;6128;59.340;18.040;2024-03-08T15:17:18;3.20;99.90
12130;DHT22;6128;59.340;18.040;2024-03-08T15:19:47;2.90;99.90
12130;DHT22;6128;59.340;18.040;2024-03-08T15:22:15;2.70;99.90
12130;DHT22;6128;59.340;18.040;2024-03-08T15:24:43;2.50;99.90
12130;DHT22;6128;59.340;18.040;2024-03-08T15:27:10;2.40;99.90
12130;DHT22;6128;59.340;18.040;2024-03-08T15:29:38;2.30;99.90
12130;DHT22;6128;59.340;18.040;2024-03-08T15:32:06;2.20;99.90
12130;DHT22;6128;59.340;18.040;2024-03-08T15:34:37;2.10;99.90
12130;DHT22;6128;59.340;18.040;2024-03-08T15:37:04;2.00;99.90
12130;DHT22;6128;59.340;18.040;2024-03-08T15:39:32;1.80;99.90
12130;DHT22;6128;59.340;18.040;2024-03-08T15:42:00;1.60;99.90
12130;DHT22;6128;59.340;18.040;2024-03-08T15:44:27;1.60;99.90
12130;DHT22;6128;59.340;18.040;2024-03-08T15:46:55;1.50;99.90
12130;DHT22;6128;59.340;18.040;2024-03-08T15:49:22;1.50;99.90
12130;DHT22;6128;59.340;18.040;2024-03-08T15:51:53;1.40;99.90
12130;DHT22;6128;59.340;18.040;2024-03-08T15:54:21;1.30;99.90
12130;DHT22;6128;59.340;18.040;2024-03-08T15:56:48;1.20;99.90